Latest Weather Observations for Hopetoun North

IDW60801

Issued at 9:05 pm WST Tuesday 16 September 2014 (issued every 30 minutes, with the page automatically refreshed every 10 minutes)

About weather observations | Map of weather stations | Latest weather observations for WA | Other Formats
Station Details ID: 009961 Name: HOPETOUN NORTH Lat: -33.93 Lon: 120.13 Height: 26.0 m
Data from the previous 72 hours. | See also: Recent months at Hopetoun North
Date/Time
WST
Temp
°C
App
Temp
°C
Dew
Point
Rel
Hum
%
Delta-T
°C
Wind Press
QNH
hPa
Press
MSL
hPa
Rain
since 9 am
mm
Dir
 
Spd
km/h
Gust
km/h
Spd
kts
Gust
kts
16/09:00pm 8.4 6.7 8.4 100 0.0 ENE 7 9 4 5 1021.4 1021.4 0.0
16/08:30pm 9.1 7.4 8.5 96 0.3 ENE 7 9 4 5 1021.4 1021.4 0.0
16/08:00pm 10.8 9.2 8.7 87 1.0 ENE 7 9 4 5 1021.2 1021.2 0.0
16/07:30pm 11.5 8.7 8.7 83 1.4 E 13 20 7 11 1021.1 1021.1 0.0
16/07:00pm 11.5 8.7 8.4 81 1.5 ESE 13 19 7 10 1020.9 1020.9 0.0
16/06:30pm 11.6 8.8 8.5 81 1.5 ESE 13 17 7 9 1020.7 1020.7 0.0
16/06:00pm 11.7 8.8 8.2 79 1.7 ESE 13 17 7 9 1020.6 1020.6 0.0
16/05:30pm 12.3 9.3 7.6 73 2.3 SE 13 22 7 12 1020.6 1020.6 0.0
16/05:00pm 13.2 9.5 7.9 70 2.6 SE 17 26 9 14 1020.4 1020.3 0.0
16/04:30pm 13.6 9.7 7.2 65 3.1 SE 17 26 9 14 1020.2 1020.1 0.0
16/04:00pm 14.1 9.8 6.9 62 3.5 SE 19 26 10 14 1020.2 1020.1 0.0
16/03:30pm 14.4 10.6 7.5 63 3.4 SE 17 24 9 13 1020.2 1020.1 0.0
16/03:00pm 14.6 10.3 6.9 60 3.7 SE 19 26 10 14 1020.2 1020.1 0.0
16/02:30pm 14.7 10.8 7.0 60 3.8 SE 17 24 9 13 1020.3 1020.2 0.0
16/02:00pm 14.9 10.8 7.7 62 3.6 SE 19 26 10 14 1020.6 1020.6 0.0
16/01:30pm 15.2 11.0 7.5 60 3.8 SSE 19 24 10 13 1020.8 1020.8 0.0
16/01:00pm 15.0 10.9 7.8 62 3.6 SSE 19 26 10 14 1021.4 1021.4 0.0
16/12:30pm 13.9 9.4 7.0 63 3.4 SSE 20 28 11 15 1021.7 1021.7 0.0
16/12:00pm 13.9 10.1 7.4 65 3.2 SSE 17 24 9 13 1022.0 1022.0 0.0
16/11:30am 13.8 9.9 7.1 64 3.3 SSE 17 24 9 13 1022.0 1022.0 0.0
16/11:00am 14.3 10.9 7.6 64 3.3 S 15 19 8 10 1022.6 1022.6 0.0
16/10:30am 16.6 14.2 10.0 65 3.5 SSE 13 19 7 10 1023.1 1023.1 0.0
16/10:00am 16.7 15.4 9.1 61 3.9 SE 6 11 3 6 1023.3 1023.3 0.0
16/09:30am 15.4 14.5 9.1 66 3.2 ENE 4 6 2 3 1023.8 1023.8 0.0
16/09:00am 15.7 14.6 10.7 72 2.6 NNE 7 13 4 7 1023.7 1023.7 0.2
16/08:30am 14.8 13.9 12.7 87 1.2 NNE 9 13 5 7 1023.6 1023.6 0.2
16/08:00am 13.9 13.8 13.9 100 0.0 N 7 11 4 6 1023.3 1023.3 0.2
16/07:30am 11.9 11.7 11.9 100 0.0 N 4 6 2 3 1023.3 1023.3 0.2
16/07:00am 9.9 9.2 9.9 100 0.0 N 4 6 2 3 1023.2 1023.2 0.2
16/06:30am 8.2 6.6 8.2 100 0.0 N 6 6 3 3 1023.2 1023.2 0.2
16/06:00am 8.2 6.6 8.2 100 0.0 N 6 7 3 4 1023.0 1023.0 0.2
16/05:30am 8.6 7.5 8.6 100 0.0 N 4 6 2 3 1022.8 1022.8 0.2
16/05:00am 8.3 6.8 8.3 100 0.0 N 6 7 3 4 1022.9 1022.9 0.2
16/04:30am 8.3 6.8 8.3 100 0.0 N 6 6 3 3 1022.7 1022.7 0.2
16/04:00am 8.3 6.8 8.3 100 0.0 N 6 7 3 4 1022.7 1022.7 0.2
16/03:30am 8.8 7.8 8.8 100 0.0 NNE 4 6 2 3 1022.6 1022.6 0.2
16/03:00am 9.3 8.0 9.3 100 0.0 N 6 6 3 3 1022.5 1022.5 0.2
16/02:30am 9.7 8.5 9.7 100 0.0 N 6 7 3 4 1023.0 1023.0 0.2
16/02:00am 9.9 8.8 9.9 100 0.0 NNE 6 7 3 4 1023.1 1023.1 0.2
16/01:30am 9.7 8.5 9.7 100 0.0 N 6 7 3 4 1023.1 1023.1 0.2
16/01:00am 9.6 8.8 9.6 100 0.0 N 4 6 2 3 1023.4 1023.4 0.2
16/12:30am 9.6 8.4 9.6 100 0.0 NNW 6 7 3 4 1023.7 1023.7 0.2
16/12:00am 7.0 5.9 7.0 100 0.0 NW 2 6 1 3 1023.7 1023.7 0.2
 
Date/Time
WST
Temp
°C
App
Temp
°C
Dew
Point
Rel
Hum
%
Delta-T
°C
Wind Press
QNH
hPa
Press
MSL
hPa
Rain
since 9 am
mm
Dir
 
Spd
km/h
Gust
km/h
Spd
kts
Gust
kts
15/11:30pm 6.9 5.0 6.9 100 0.0 N 6 7 3 4 1023.8 1023.8 0.2
15/11:00pm 6.4 4.4 6.3 99 0.0 N 6 7 3 4 1023.9 1023.9 0.2
15/10:30pm 9.8 7.9 8.9 94 0.4 SE 9 13 5 7 1024.0 1024.0 0.2
15/10:00pm 8.0 6.4 8.0 100 0.0 E 6 7 3 4 1024.0 1024.0 0.2
15/09:30pm 8.2 6.2 7.3 94 0.4 E 7 9 4 5 1024.3 1024.3 0.2
15/09:00pm 10.2 8.1 8.3 88 0.9 SE 9 13 5 7 1024.5 1024.5 0.2
15/08:30pm 10.3 7.8 8.2 87 1.0 SE 11 13 6 7 1024.5 1024.5 0.2
15/08:00pm 10.3 8.5 8.1 86 1.1 SE 7 9 4 5 1024.6 1024.6 0.2
15/07:30pm 10.5 8.4 8.1 85 1.2 SE 9 11 5 6 1024.6 1024.6 0.2
15/07:00pm 11.0 8.9 8.1 82 1.4 SE 9 13 5 7 1024.4 1024.4 0.2
15/06:30pm 11.1 9.0 8.1 82 1.5 SSE 9 17 5 9 1024.1 1024.1 0.2
15/06:00pm 10.9 8.7 7.8 81 1.5 SSE 9 13 5 7 1023.8 1023.8 0.2
15/05:30pm 11.8 9.6 7.7 76 2.0 SSE 9 15 5 8 1023.6 1023.6 0.2
15/05:00pm 12.6 10.1 8.1 74 2.2 SSE 11 19 6 10 1023.3 1023.3 0.2
15/04:30pm 12.9 9.6 8.0 72 2.4 SSE 15 19 8 10 1023.2 1023.2 0.2
15/04:00pm 13.4 10.5 8.0 70 2.7 SSE 13 20 7 11 1023.0 1023.0 0.2
15/03:30pm 12.8 9.8 7.7 71 2.5 ESE 13 19 7 10 1023.0 1023.0 0.2
15/03:00pm 14.2 11.2 9.2 72 2.5 SE 15 19 8 10 1023.1 1023.1 0.2
15/02:30pm 14.1 11.7 9.9 76 2.2 SSE 13 20 7 11 1023.4 1023.4 0.2
15/02:00pm 13.4 11.3 9.6 78 1.9 SSE 11 17 6 9 1023.4 1023.4 0.2
15/01:30pm 14.2 11.3 9.8 75 2.3 SSE 15 20 8 11 1023.5 1023.5 0.0
15/01:00pm 13.6 11.2 10.2 80 1.8 SSE 13 20 7 11 1023.6 1023.6 0.0
15/12:30pm 13.4 11.1 10.4 82 1.6 S 13 20 7 11 1023.9 1023.9 0.0
15/12:00pm 13.2 11.3 10.6 84 1.3 SSE 11 15 6 8 1024.3 1024.3 0.0
15/11:30am 12.1 11.0 11.9 99 0.1 SE 9 13 5 7 1024.5 1024.5 0.0
15/11:00am 12.7 11.2 10.4 86 1.2 S 9 19 5 10 1024.6 1024.6 0.0
15/10:30am 12.8 11.1 10.0 83 1.4 S 9 13 5 7 1024.8 1024.8 0.0
15/10:00am 12.3 10.0 10.4 88 1.0 SW 13 19 7 10 1025.0 1025.0 0.0
15/09:30am 12.7 11.0 11.1 90 0.8 S 11 17 6 9 1025.2 1025.2 0.0
15/09:00am 12.8 11.5 12.5 98 0.2 SSE 11 17 6 9 1025.2 1025.2 3.8
15/08:30am 12.2 11.6 12.2 100 0.0 SSE 7 9 4 5 1025.4 1025.4 3.8
15/08:00am 11.7 10.9 11.7 100 0.0 SSE 7 11 4 6 1025.3 1025.3 3.8
15/07:30am 11.1 10.1 11.1 100 0.0 SSE 7 13 4 7 1025.0 1025.0 3.8
15/07:00am 10.9 9.1 10.9 100 0.0 S 11 15 6 8 1024.8 1024.8 3.8
15/06:30am 10.4 8.1 10.4 100 0.0 S 13 20 7 11 1024.4 1024.4 3.8
15/06:00am 10.4 7.7 10.4 100 0.0 SSW 15 22 8 12 1024.6 1024.6 3.8
15/05:30am 10.5 7.8 10.5 100 0.0 SSW 15 19 8 10 1024.5 1024.5 3.8
15/05:00am 10.3 7.6 10.3 100 0.0 SW 15 20 8 11 1024.2 1024.2 3.8
15/04:30am 10.4 7.0 10.4 100 0.0 SSW 19 24 10 13 1023.7 1023.7 3.6
15/04:00am 10.6 8.7 10.6 100 0.0 W 11 20 6 11 1023.3 1023.3 0.4
15/03:30am 9.6 8.1 9.3 98 0.1 NW 7 11 4 6 1023.1 1023.1 0.0
15/03:00am 9.3 8.0 9.3 100 0.0 NNW 6 9 3 5 1023.1 1023.1 0.0
15/02:30am 8.7 6.7 8.7 100 0.0 NW 9 11 5 6 1023.4 1023.4 0.0
15/02:00am 7.1 5.1 7.1 100 0.0 NW 7 9 4 5 1023.4 1023.4 0.0
15/01:30am 7.7 6.0 7.7 100 0.0 N 6 7 3 4 1023.2 1023.2 0.0
15/01:00am 7.5 5.6 7.5 100 0.0 N 7 9 4 5 1023.3 1023.3 0.0
15/12:30am 7.9 6.3 7.9 100 0.0 N 6 7 3 4 1023.4 1023.4 0.0
15/12:00am 8.6 7.1 8.3 98 0.1 NNE 6 9 3 5 1023.2 1023.2 0.0
 
Date/Time
WST
Temp
°C
App
Temp
°C
Dew
Point
Rel
Hum
%
Delta-T
°C
Wind Press
QNH
hPa
Press
MSL
hPa
Rain
since 9 am
mm
Dir
 
Spd
km/h
Gust
km/h
Spd
kts
Gust
kts
14/11:30pm 9.2 7.8 8.7 97 0.2 N 6 7 3 4 1023.4 1023.4 0.0
14/11:00pm 8.5 7.0 8.4 99 0.0 N 6 7 3 4 1023.5 1023.5 0.0
14/10:30pm 8.4 6.7 8.3 99 0.0 NNW 7 9 4 5 1023.6 1023.6 0.0
14/10:00pm 9.2 7.7 8.4 95 0.4 NNW 6 7 3 4 1023.8 1023.8 0.0
14/09:30pm 8.9 7.8 8.3 96 0.3 N 4 6 2 3 1023.9 1023.9 0.0
14/09:00pm 9.1 7.8 7.7 91 0.7 N 4 4 2 2 1023.9 1023.9 0.0
14/08:30pm 9.4 7.7 7.7 89 0.8 NNE 6 6 3 3 1023.7 1023.7 0.0
14/08:00pm 9.9 8.1 7.3 84 1.2 NE 6 6 3 3 1023.4 1023.4 0.0
14/07:30pm 9.8 7.8 6.2 78 1.7 NE 6 7 3 4 1023.3 1023.3 0.0
14/07:00pm 10.4 8.2 6.0 74 2.0 E 7 9 4 5 1023.0 1023.0 0.0
14/06:30pm 12.6 10.7 7.7 72 2.4 ESE 7 9 4 5 1022.6 1022.6 0.0
14/06:00pm 13.1 11.2 7.5 69 2.7 ESE 7 11 4 6 1022.1 1022.1 0.0
14/05:30pm 14.3 12.6 8.3 67 3.0 SSE 7 13 4 7 1021.8 1021.8 0.0
14/05:00pm 15.3 12.2 7.3 59 3.9 S 13 19 7 10 1021.7 1021.7 0.0
14/04:30pm 15.9 12.9 7.9 59 4.0 SSE 13 17 7 9 1021.4 1021.4 0.0
14/04:00pm - - - - - SE 13 19 7 10 1021.1 1021.1 0.0
14/03:30pm - - - - - SSE 15 20 8 11 1020.8 1020.8 0.0
14/03:00pm - - - - - SSE 15 20 8 11 1020.5 1020.4 0.0
14/02:30pm - - - - - SSE 17 20 9 11 1020.5 1020.4 0.0
14/02:00pm - - - - - SSE 17 22 9 12 1020.5 1020.4 0.0
14/01:30pm - - - - - SSE 15 19 8 10 1020.5 1020.4 0.0
14/01:00pm 16.8 13.7 7.2 53 4.8 SSE 13 19 7 10 1020.6 1020.6 0.0
14/12:30pm 18.2 15.5 5.8 44 6.1 SW 9 15 5 8 1020.8 1020.8 0.0
14/12:00pm 17.4 15.0 5.4 45 5.8 NNW 7 15 4 8 1021.1 1021.1 0.0
14/11:30am 16.2 13.4 5.2 48 5.2 NW 9 17 5 9 1021.4 1021.4 0.0
14/11:00am 15.1 12.6 4.5 49 4.9 NNW 7 17 4 9 1021.8 1021.8 0.0
14/10:30am 18.1 16.2 8.9 55 4.8 NNW 9 15 5 8 1022.2 1022.2 0.0
14/10:00am 14.8 12.6 6.4 57 4.0 N 7 13 4 7 1022.5 1022.5 0.0
14/09:30am 15.9 14.1 9.6 66 3.3 N 9 13 5 7 1022.5 1022.5 0.0
14/09:00am 15.3 13.3 10.3 72 2.6 N 11 15 6 8 1022.6 1022.6 0.2
14/08:30am 11.1 9.3 7.8 80 1.6 NNW 7 11 4 6 1022.9 1022.9 0.2
14/08:00am 9.4 7.9 8.3 93 0.5 N 6 7 3 4 1022.9 1022.9 0.2
14/07:30am 6.9 4.9 6.9 100 0.0 N 7 9 4 5 1022.7 1022.7 0.2
14/07:00am 4.3 1.9 4.3 100 0.0 N 6 7 3 4 1022.6 1022.6 0.2
14/06:30am 2.9 0.1 2.9 100 0.0 N 7 7 4 4 1022.1 1022.1 0.2
14/06:00am 2.7 -0.2 2.7 100 0.0 N 7 7 4 4 1021.7 1021.7 0.2
14/05:30am 2.7 -0.2 2.7 100 0.0 N 7 7 4 4 1021.5 1021.5 0.2
14/05:00am 2.7 -0.6 2.7 100 0.0 NNW 9 11 5 6 1021.1 1021.1 0.2
14/04:30am 2.8 -0.1 2.8 100 0.0 N 7 7 4 4 1020.8 1020.8 0.2
14/04:00am 2.9 0.2 2.9 100 0.0 N 6 6 3 3 1020.6 1020.6 0.2
14/03:30am 2.9 0.1 2.9 100 0.0 N 7 9 4 5 1020.6 1020.6 0.2
14/03:00am 2.8 0.1 2.8 100 0.0 N 6 7 3 4 1020.6 1020.6 0.2
14/02:30am 3.7 1.2 3.7 100 0.0 N 6 7 3 4 1020.4 1020.3 0.2
14/02:00am 7.0 5.2 7.0 100 0.0 NNW 6 6 3 3 1020.4 1020.3 0.2
14/01:30am 6.6 5.7 6.0 96 0.3 CALM 0 0 0 0 1020.8 1020.8 0.2
14/01:00am 6.2 5.1 5.2 93 0.4 CALM 0 0 0 0 1021.1 1021.1 0.2
14/12:30am 6.7 5.6 5.0 89 0.7 CALM 0 0 0 0 1021.4 1021.4 0.2
14/12:00am 8.5 6.7 5.3 80 1.4 SSW 4 7 2 4 1021.7 1021.7 0.2
 
Date/Time
WST
Temp
°C
App
Temp
°C
Dew
Point
Rel
Hum
%
Delta-T
°C
Wind Press
QNH
hPa
Press
MSL
hPa
Rain
since 9 am
mm
Dir
 
Spd
km/h
Gust
km/h
Spd
kts
Gust
kts
13/11:30pm 9.2 6.8 5.2 76 1.8 SSW 7 11 4 6 1021.9 1021.9 0.2
13/11:00pm 8.8 6.0 5.0 77 1.7 SSW 9 15 5 8 1022.0 1022.0 0.2
13/10:30pm 9.7 7.3 5.1 73 2.1 SSW 7 11 4 6 1022.1 1022.1 0.2
13/10:00pm 10.0 6.8 5.2 72 2.2 SSW 11 13 6 7 1022.1 1022.1 0.2
13/09:30pm 10.8 7.6 5.3 69 2.5 SSW 11 15 6 8 1022.1 1022.1 0.2

Other Formats:

Comma delimited format used in spreadsheet applications
http://www.bom.gov.au/fwo/IDW60801/IDW60801.95635.axf

JavaScript Object Notation format (JSON) in row-major order
http://www.bom.gov.au/fwo/IDW60801/IDW60801.95635.json